Port Alsworth, AK (99653)

5:43 AM AKDT on April 26, 2017 (GMT -0800)
Iliamna | | Change Station

Elev 184 ft 59.75 °N, 154.91 °W | Updated 50 minutes ago

Overcast
Overcast
37 °F
Feels Like 33 °F
N
5
Wind Variable Wind from NW

Today
High -- | Low -- °F
--% Chance of Precip.
Yesterday
High -- | Low -- °F
Precip. -- in
Pressure 29.57 in
Visibility 10.0 miles
Clouds Mostly Cloudy 2800 ft
Mostly Cloudy 5000 ft
Overcast 6500 ft
Windchill 33 °F
Dew Point 36 °F
Humidity 96%
Rainfall 0.00 in
Snow Depth Not available.
6:26 AM 10:05 PM
New Moon, 0% visible
METAR PAIL 261253Z AUTO 32004KT 10SM BKN028 BKN050 OVC065 03/02 A2956 RMK AO2 RAE13B32E50 SLP013 P0000 T00280022 TSNO
Pressure 29.57 in
Visibility 10.0 miles
Clouds Mostly Cloudy 2800 ft
Mostly Cloudy 5000 ft
Overcast 6500 ft
Windchill 33 °F
Dew Point 36 °F
Humidity 96%
Rainfall 0.00 in
Snow Depth Not available.
6:26 AM 10:05 PM
New Moon, 0% visible
METAR PAIL 261253Z AUTO 32004KT 10SM BKN028 BKN050 OVC065 03/02 A2956 RMK AO2 RAE13B32E50 SLP013 P0000 T00280022 TSNO

Get Severe Weather Alerts

Thanks for signing up!

Be on the lookout for a verification email in your inbox.

You'll start receiving the daily forecast at 8 AM.

×

10-Day Weather Forecast

Almanac

Astronomy

Apr. 26, 2017 Rise Set
Actual Time
Civil Twilight
Nautical Twilight
Astronomical Twilight
Moon
Length of Visible Light
Length of Day
Tomorrow will be .
, % of the Moon is Illuminated

Today's Extremes

State Highs State Lows

Community

WunderPhotos

WunderBlog® & News

Nearby

Air Quality

  Air Quality AQ Index Pollutant
Not available.

Snow Depth

Station Depth Elevation

Earthquake Activity

City Distance Mag. Time & Date
Minimum magnitude displayed is 2.5.

Coastal Water Temperatures

Place Temperature

Stations

Nearby Weather Stations

Station Location Temp. Windchill Dew Point Humidity Wind Precip. Elev Updated Type
                   

Watches & Warnings

There are currently no watches in effect.